createdAt,value
2022-12-15T00:02:14.871Z,76.57
2022-12-15T00:05:00.096Z,77.14
2022-12-15T00:07:45.387Z,78.16
2022-12-15T00:10:30.567Z,79.18
2022-12-15T00:13:15.732Z,75.88
2022-12-15T00:16:00.765Z,75.30
2022-12-15T00:18:46.089Z,74.77
2022-12-15T00:21:31.167Z,73.24
2022-12-15T00:24:16.329Z,73.42
2022-12-15T00:27:01.448Z,74.24
2022-12-15T00:29:46.574Z,77.35
2022-12-15T00:32:31.757Z,77.53
2022-12-15T00:35:17.168Z,75.87
2022-12-15T00:38:02.547Z,76.01
2022-12-15T00:40:29.168Z,77.34
2022-12-15T00:43:00.267Z,78.07
2022-12-15T00:45:46.877Z,79.81
2022-12-15T00:48:13.663Z,77.43
2022-12-15T00:50:52.419Z,77.19
2022-12-15T00:53:40.918Z,77.36
2022-12-15T00:56:26.946Z,76.05
2022-12-15T00:59:12.210Z,77.51
2022-12-15T01:01:57.359Z,74.20
2022-12-15T01:04:42.466Z,76.02
2022-12-15T01:07:30.939Z,75.44
2022-12-15T01:10:16.441Z,74.40
2022-12-15T01:13:01.967Z,75.65
2022-12-15T01:15:47.220Z,73.91
2022-12-15T01:18:32.315Z,74.72
2022-12-15T01:21:02.298Z,77.91
2022-12-15T01:23:29.619Z,76.72
2022-12-15T01:25:59.058Z,75.90
2022-12-15T01:28:25.948Z,75.52
2022-12-15T01:30:52.829Z,73.83
2022-12-15T01:33:20.086Z,73.08
2022-12-15T01:36:03.047Z,72.87
2022-12-15T01:38:29.897Z,72.23
2022-12-15T01:41:06.116Z,72.38
2022-12-15T01:43:51.459Z,74.16
2022-12-15T01:46:20.522Z,72.94
2022-12-15T01:48:49.416Z,72.53
2022-12-15T01:51:34.872Z,71.25
2022-12-15T01:54:01.615Z,71.19
2022-12-15T01:56:35.529Z,70.64
2022-12-15T01:59:08.286Z,70.26
2022-12-15T02:01:35.366Z,70.33
2022-12-15T02:04:06.717Z,69.48
2022-12-15T02:06:33.341Z,69.05
2022-12-15T02:09:01.008Z,68.61
2022-12-15T02:11:30.879Z,68.56
2022-12-15T02:13:57.600Z,68.15
2022-12-15T02:16:33.718Z,69.37
2022-12-15T02:19:00.449Z,69.26
2022-12-15T02:21:30.128Z,69.04
2022-12-15T02:23:56.827Z,68.02
2022-12-15T02:26:38.888Z,68.26
2022-12-15T02:29:05.486Z,67.82
2022-12-15T02:31:52.319Z,67.59
2022-12-15T02:34:33.099Z,67.15
2022-12-15T02:37:03.305Z,66.89
2022-12-15T02:39:30.145Z,67.98
2022-12-15T02:41:56.909Z,72.42
2022-12-15T02:44:23.537Z,72.76
2022-12-15T02:47:10.195Z,74.98
2022-12-15T02:50:08.314Z,73.23
2022-12-15T02:52:38.055Z,74.14
2022-12-15T02:55:04.666Z,72.51
2022-12-15T02:57:37.437Z,71.80
2022-12-15T03:00:06.987Z,71.06
2022-12-15T03:02:38.075Z,70.47
2022-12-15T03:05:05.399Z,69.71
2022-12-15T03:07:31.997Z,68.89
2022-12-15T03:10:00.770Z,68.87
2022-12-15T03:12:29.857Z,69.01
2022-12-15T03:14:56.517Z,68.84
2022-12-15T03:17:23.127Z,68.27
2022-12-15T03:19:49.945Z,67.89
2022-12-15T03:22:16.850Z,68.11
2022-12-15T03:24:43.467Z,67.76
2022-12-15T03:27:10.719Z,67.85
2022-12-15T03:29:37.537Z,67.61
2022-12-15T03:32:04.489Z,67.49
2022-12-15T03:34:31.168Z,67.29
2022-12-15T03:36:58.276Z,67.04
2022-12-15T03:39:24.955Z,66.96
2022-12-15T03:41:51.596Z,67.46
2022-12-15T03:44:18.259Z,67.51
2022-12-15T03:46:46.307Z,67.79
2022-12-15T03:49:13.079Z,68.67
2022-12-15T03:51:39.791Z,68.13
2022-12-15T03:54:07.575Z,68.95
2022-12-15T03:56:34.528Z,68.74
2022-12-15T03:59:01.208Z,68.42
2022-12-15T04:01:32.138Z,68.38
2022-12-15T04:04:12.989Z,68.64
2022-12-15T04:06:39.647Z,68.48
2022-12-15T04:09:06.388Z,70.19
2022-12-15T04:11:33.146Z,68.93
2022-12-15T04:13:59.906Z,68.72
2022-12-15T04:16:26.944Z,68.11
2022-12-15T04:19:13.786Z,68.81
2022-12-15T04:21:40.477Z,69.82
2022-12-15T04:24:25.607Z,72.59
2022-12-15T04:27:10.668Z,70.86
2022-12-15T04:29:58.998Z,69.92
2022-12-15T04:32:44.717Z,69.70
2022-12-15T04:35:35.801Z,69.13
2022-12-15T04:38:21.060Z,68.91
2022-12-15T04:41:06.343Z,69.15
2022-12-15T04:43:52.077Z,68.49
2022-12-15T04:46:37.299Z,68.41
2022-12-15T04:49:22.659Z,68.16
2022-12-15T04:52:07.537Z,67.97
2022-12-15T04:54:53.335Z,67.66
2022-12-15T04:57:39.090Z,67.73
2022-12-15T05:00:24.689Z,67.58
2022-12-15T05:03:13.671Z,67.43
2022-12-15T05:06:03.727Z,66.88
2022-12-15T05:08:50.148Z,67.20
2022-12-15T05:11:36.130Z,70.45
2022-12-15T05:14:21.391Z,75.90
2022-12-15T05:17:06.433Z,72.32
2022-12-15T05:19:51.767Z,70.85
2022-12-15T05:22:39.158Z,69.20
2022-12-15T05:25:24.869Z,71.04
2022-12-15T05:28:10.237Z,70.95
2022-12-15T05:30:55.299Z,70.84
2022-12-15T05:33:22.007Z,70.85
2022-12-15T05:35:48.859Z,70.91
2022-12-15T05:38:15.817Z,75.66
2022-12-15T05:40:42.555Z,74.42
2022-12-15T05:43:09.408Z,72.97
2022-12-15T05:45:36.060Z,72.40
2022-12-15T05:48:02.686Z,73.00
2022-12-15T05:50:29.359Z,72.27
2022-12-15T05:52:58.276Z,75.77
2022-12-15T05:55:24.939Z,75.52
2022-12-15T05:57:52.529Z,75.84
2022-12-15T06:00:19.749Z,79.34
2022-12-15T06:02:46.489Z,76.19
2022-12-15T06:05:13.189Z,77.14
2022-12-15T06:07:39.825Z,76.02
2022-12-15T06:10:06.678Z,76.44
2022-12-15T06:12:33.376Z,78.96
2022-12-15T06:15:00.054Z,78.09
2022-12-15T06:17:27.769Z,75.82
2022-12-15T06:19:54.467Z,75.06
2022-12-15T06:22:24.010Z,74.74
2022-12-15T06:24:51.387Z,73.35
2022-12-15T06:27:18.337Z,74.08
2022-12-15T06:29:45.422Z,73.85
2022-12-15T06:32:12.075Z,75.51
2022-12-15T06:34:38.889Z,80.35
2022-12-15T06:37:07.887Z,80.42
2022-12-15T06:39:34.904Z,76.08
2022-12-15T06:42:01.818Z,76.63
2022-12-15T06:44:28.750Z,76.44
2022-12-15T06:46:55.698Z,77.33
2022-12-15T06:49:22.515Z,75.11
2022-12-15T06:51:49.847Z,78.16
2022-12-15T06:54:18.008Z,76.90
2022-12-15T06:56:44.690Z,76.12
2022-12-15T06:59:11.997Z,75.19
2022-12-15T07:01:38.957Z,77.40
2022-12-15T07:04:06.282Z,76.53
2022-12-15T07:06:38.404Z,76.52
2022-12-15T07:09:12.734Z,75.84
2022-12-15T07:11:40.723Z,75.58
2022-12-15T07:14:07.491Z,74.75
2022-12-15T07:16:34.440Z,74.83
2022-12-15T07:19:01.289Z,75.98
2022-12-15T07:21:28.089Z,74.34
2022-12-15T07:23:56.746Z,75.32
2022-12-15T07:26:24.476Z,73.94
2022-12-15T07:28:51.579Z,75.13
2022-12-15T07:31:18.541Z,73.58
2022-12-15T07:33:45.647Z,76.28
2022-12-15T07:36:12.458Z,77.25
2022-12-15T07:38:39.302Z,78.87
2022-12-15T07:41:07.042Z,80.03
2022-12-15T07:43:35.053Z,79.59
2022-12-15T07:46:04.077Z,79.82
2022-12-15T07:48:32.947Z,79.76
2022-12-15T07:51:08.475Z,78.26
2022-12-15T07:53:38.509Z,79.56
2022-12-15T07:56:07.996Z,80.64
2022-12-15T07:58:38.042Z,82.66
2022-12-15T08:01:07.381Z,79.41
2022-12-15T08:03:36.066Z,80.92
2022-12-15T08:06:07.037Z,79.47
2022-12-15T08:08:35.039Z,77.29
2022-12-15T08:11:08.269Z,77.53
2022-12-15T08:14:01.837Z,79.17
2022-12-15T08:16:22.528Z,78.89
2022-12-15T08:18:49.900Z,76.71
2022-12-15T08:21:17.621Z,76.61
2022-12-15T08:23:45.266Z,76.91
2022-12-15T08:26:16.406Z,77.47
2022-12-15T08:28:43.674Z,78.88
2022-12-15T08:31:16.606Z,77.47
2022-12-15T08:33:50.056Z,78.16
2022-12-15T08:36:19.857Z,76.76
2022-12-15T08:38:46.527Z,75.20
2022-12-15T08:41:21.185Z,75.90
2022-12-15T08:43:49.410Z,76.03
2022-12-15T08:46:20.413Z,75.93
2022-12-15T08:48:48.149Z,77.76
2022-12-15T08:51:15.003Z,76.96
2022-12-15T08:53:42.235Z,78.05
2022-12-15T08:56:12.473Z,75.37
2022-12-15T08:58:39.318Z,75.47
2022-12-15T09:01:07.617Z,75.53
2022-12-15T09:03:35.949Z,75.99
2022-12-15T09:06:08.363Z,77.92
2022-12-15T09:08:35.569Z,80.46
2022-12-15T09:11:02.529Z,79.63
2022-12-15T09:13:31.666Z,80.91
2022-12-15T09:16:14.488Z,80.29
2022-12-15T09:18:46.174Z,81.00
2022-12-15T09:21:15.454Z,78.96
2022-12-15T09:23:42.603Z,77.97
2022-12-15T09:26:14.540Z,77.23
2022-12-15T09:28:41.954Z,78.35
2022-12-15T09:31:22.784Z,78.09
2022-12-15T09:33:50.622Z,79.49
2022-12-15T09:36:17.455Z,79.48
2022-12-15T09:38:44.854Z,77.40
2022-12-15T09:41:17.760Z,78.85
2022-12-15T09:43:47.313Z,79.73
2022-12-15T09:46:29.656Z,77.89
2022-12-15T09:48:58.454Z,79.01
2022-12-15T09:51:38.753Z,80.81
2022-12-15T09:54:06.055Z,78.53
2022-12-15T09:56:41.077Z,80.75
2022-12-15T09:59:27.985Z,81.52
2022-12-15T10:02:15.214Z,80.27
2022-12-15T10:05:02.264Z,80.77
2022-12-15T10:07:30.056Z,80.65
2022-12-15T10:09:56.983Z,80.53
2022-12-15T10:12:28.861Z,80.09
2022-12-15T10:15:06.775Z,79.35
2022-12-15T10:17:33.547Z,80.82
2022-12-15T10:20:00.205Z,80.49
2022-12-15T10:22:30.387Z,79.70
2022-12-15T10:25:12.468Z,79.37
2022-12-15T10:28:00.036Z,77.06
2022-12-15T10:30:26.961Z,78.18
2022-12-15T10:33:19.541Z,78.64
2022-12-15T10:35:49.962Z,78.59
2022-12-15T10:38:40.566Z,76.91
2022-12-15T10:41:12.296Z,75.19
2022-12-15T10:43:43.606Z,73.25
2022-12-15T10:46:24.916Z,72.79
2022-12-15T10:48:52.805Z,72.59
2022-12-15T10:51:19.647Z,72.34
2022-12-15T10:53:51.973Z,70.92
2022-12-15T10:56:28.860Z,72.49
2022-12-15T10:59:00.892Z,71.94
2022-12-15T11:01:31.411Z,71.30
2022-12-15T11:03:58.584Z,71.39
2022-12-15T11:06:31.043Z,70.33
2022-12-15T11:09:08.532Z,69.84
2022-12-15T11:12:12.080Z,70.54
2022-12-15T11:15:02.269Z,72.90
2022-12-15T11:17:43.936Z,71.60
2022-12-15T11:20:17.463Z,70.69
2022-12-15T11:22:51.262Z,69.90
2022-12-15T11:25:25.395Z,71.79
2022-12-15T11:27:56.851Z,76.76
2022-12-15T11:30:31.623Z,74.56
2022-12-15T11:33:02.295Z,76.92
2022-12-15T11:35:51.025Z,72.88
2022-12-15T11:38:40.943Z,74.01
2022-12-15T11:41:26.365Z,75.39
2022-12-15T11:44:13.694Z,77.94
2022-12-15T11:46:44.402Z,77.07
2022-12-15T11:49:22.096Z,75.01
2022-12-15T11:51:57.721Z,75.50
2022-12-15T11:54:28.892Z,75.44
2022-12-15T11:57:14.739Z,74.35
2022-12-15T11:59:52.818Z,75.03
2022-12-15T12:02:28.709Z,76.46
2022-12-15T12:05:04.577Z,77.76
2022-12-15T12:07:45.233Z,78.94
2022-12-15T12:10:37.566Z,80.48
2022-12-15T12:13:05.674Z,78.73
2022-12-15T12:15:47.488Z,77.48
2022-12-15T12:18:21.951Z,77.38
2022-12-15T12:21:08.781Z,78.05
2022-12-15T12:23:43.985Z,77.78
2022-12-15T12:26:10.758Z,81.04
2022-12-15T12:28:48.881Z,81.73
2022-12-15T12:31:42.446Z,78.71
2022-12-15T12:34:14.250Z,81.11
2022-12-15T12:36:44.435Z,81.60
2022-12-15T12:39:21.206Z,80.36
2022-12-15T12:42:08.786Z,80.24
2022-12-15T12:44:38.743Z,80.94
2022-12-15T12:47:10.794Z,83.15
2022-12-15T12:49:42.211Z,79.31
2022-12-15T12:52:18.857Z,78.27
2022-12-15T12:54:52.862Z,79.29
2022-12-15T12:57:31.179Z,79.39
2022-12-15T12:59:58.065Z,79.81
2022-12-15T13:02:26.274Z,80.22
2022-12-15T13:05:03.227Z,80.24
2022-12-15T13:07:32.344Z,79.92
2022-12-15T13:10:17.705Z,80.83
2022-12-15T13:15:45.807Z,79.80
2022-12-15T13:18:22.787Z,80.36
2022-12-15T13:20:53.770Z,80.69
2022-12-15T13:23:20.415Z,79.01
2022-12-15T13:25:55.980Z,79.95
2022-12-15T13:28:35.223Z,81.45
2022-12-15T13:31:19.300Z,79.52
2022-12-15T13:33:49.430Z,77.34
2022-12-15T13:36:55.073Z,81.26
2022-12-15T13:39:22.417Z,79.81
2022-12-15T13:44:45.603Z,77.00
2022-12-15T13:47:19.052Z,76.38
2022-12-15T13:49:53.266Z,76.61
2022-12-15T13:52:44.196Z,78.49
2022-12-15T13:55:27.879Z,79.08
2022-12-15T13:57:57.615Z,78.62
2022-12-15T14:00:24.502Z,78.29
2022-12-15T14:02:53.519Z,78.67
2022-12-15T14:05:22.515Z,76.96
2022-12-15T14:10:42.046Z,75.68
2022-12-15T14:13:16.129Z,74.82
2022-12-15T14:15:45.938Z,74.89
2022-12-15T14:18:41.044Z,74.27
2022-12-15T14:21:19.654Z,76.30
2022-12-15T14:26:33.356Z,77.28
2022-12-15T14:29:05.630Z,78.12
2022-12-15T14:31:32.611Z,79.99
2022-12-15T14:34:18.929Z,80.90
2022-12-15T14:36:46.244Z,77.14
2022-12-15T14:39:18.850Z,78.83
2022-12-15T14:41:49.012Z,77.84
2022-12-15T14:44:31.907Z,79.14
2022-12-15T14:47:16.987Z,82.28
2022-12-15T14:49:47.987Z,82.20
2022-12-15T14:52:22.618Z,80.85
2022-12-15T14:55:18.191Z,84.16
2022-12-15T14:57:45.785Z,84.10
2022-12-15T15:00:23.754Z,83.71
2022-12-15T15:02:50.468Z,84.05
2022-12-15T15:03:09.322Z,79.91
2022-12-15T15:05:42.154Z,85.09
2022-12-15T15:08:15.964Z,84.68
2022-12-15T15:10:47.772Z,87.20
2022-12-15T15:13:21.865Z,85.24
2022-12-15T15:15:56.488Z,84.54
2022-12-15T15:18:27.881Z,85.54
2022-12-15T15:21:05.632Z,83.80
2022-12-15T15:23:34.710Z,81.93
2022-12-15T15:26:04.346Z,81.43
2022-12-15T15:28:41.576Z,80.90
2022-12-15T15:31:36.669Z,79.93
2022-12-15T15:34:09.064Z,78.98
2022-12-15T15:36:37.503Z,77.90
2022-12-15T15:39:10.463Z,76.64
2022-12-15T15:41:37.243Z,77.89
2022-12-15T15:44:09.315Z,77.84
2022-12-15T15:46:45.223Z,77.41
2022-12-15T15:49:18.467Z,79.02
2022-12-15T15:51:45.534Z,81.21
2022-12-15T15:54:17.724Z,79.94
2022-12-15T15:56:44.429Z,82.22
2022-12-15T15:59:13.025Z,80.91
2022-12-15T16:01:42.086Z,78.57
2022-12-15T16:04:09.282Z,78.01
2022-12-15T16:06:36.340Z,77.92
2022-12-15T16:09:03.608Z,81.11
2022-12-15T16:11:33.264Z,80.89
2022-12-15T16:14:01.674Z,80.68
2022-12-15T16:16:31.451Z,79.32
2022-12-15T16:19:00.184Z,76.79
2022-12-15T16:21:27.925Z,77.13
2022-12-15T16:23:55.502Z,77.94
2022-12-15T16:26:26.086Z,78.73
2022-12-15T16:28:53.045Z,76.12
2022-12-15T16:31:41.459Z,77.48
2022-12-15T16:34:10.783Z,77.33
2022-12-15T16:36:37.583Z,79.70
2022-12-15T16:39:04.554Z,78.23
2022-12-15T16:41:31.241Z,77.78
2022-12-15T16:43:58.821Z,77.65
2022-12-15T16:46:28.232Z,76.28
2022-12-15T16:48:55.014Z,74.38
2022-12-15T16:51:42.373Z,77.67
2022-12-15T16:54:14.782Z,75.89
2022-12-15T16:56:42.725Z,78.01
2022-12-15T16:59:32.608Z,80.53
2022-12-15T17:02:04.397Z,78.65
2022-12-15T17:04:31.151Z,77.38
2022-12-15T17:06:57.904Z,79.90
2022-12-15T17:09:25.758Z,80.63
2022-12-15T17:11:52.659Z,78.52
2022-12-15T17:14:19.412Z,82.07
2022-12-15T17:16:46.179Z,83.49
2022-12-15T17:19:17.569Z,88.09
2022-12-15T17:21:53.154Z,85.21
2022-12-15T17:24:20.845Z,81.74
2022-12-15T17:26:47.712Z,79.42
2022-12-15T17:29:17.018Z,82.65
2022-12-15T17:31:43.891Z,83.15
2022-12-15T17:34:19.756Z,79.86
2022-12-15T17:36:46.460Z,79.82
2022-12-15T17:39:14.738Z,80.04
2022-12-15T17:44:38.389Z,80.59
2022-12-15T17:47:08.976Z,77.73
2022-12-15T17:49:38.604Z,81.73
2022-12-15T17:52:18.067Z,80.67
2022-12-15T17:54:44.879Z,80.55
2022-12-15T17:57:11.873Z,80.44
2022-12-15T17:59:38.554Z,80.73
2022-12-15T18:02:05.298Z,78.63
2022-12-15T18:04:32.207Z,77.69
2022-12-15T18:07:01.950Z,76.76
2022-12-15T18:09:29.379Z,78.97
2022-12-15T18:11:56.142Z,78.12
2022-12-15T18:14:23.162Z,77.49
2022-12-15T18:16:50.070Z,76.88
2022-12-15T18:19:17.056Z,79.42
2022-12-15T18:21:43.899Z,77.81
2022-12-15T18:24:15.660Z,77.81
2022-12-15T18:26:43.091Z,78.77
2022-12-15T18:29:11.769Z,78.90
2022-12-15T18:31:38.518Z,77.96
2022-12-15T18:34:10.651Z,78.60
2022-12-15T18:36:37.504Z,76.15
2022-12-15T18:39:17.630Z,76.39
2022-12-15T18:41:44.482Z,78.67
2022-12-15T18:44:24.744Z,79.38
2022-12-15T18:46:52.089Z,79.72
2022-12-15T18:49:20.912Z,77.89
2022-12-15T18:51:48.171Z,77.56
2022-12-15T18:54:19.735Z,80.89
2022-12-15T18:56:46.496Z,81.89
2022-12-15T18:59:17.269Z,83.58
2022-12-15T19:01:45.765Z,81.09
2022-12-15T19:04:13.060Z,79.89
2022-12-15T19:06:40.672Z,82.48
2022-12-15T19:09:19.374Z,82.74
2022-12-15T19:12:10.761Z,81.51
2022-12-15T19:14:43.470Z,82.11
2022-12-15T19:17:29.441Z,80.97
2022-12-15T19:20:14.424Z,83.88
2022-12-15T19:22:41.467Z,83.51
2022-12-15T19:25:11.023Z,85.50
2022-12-15T19:27:37.668Z,84.58
2022-12-15T19:30:14.298Z,84.57
2022-12-15T19:32:40.958Z,83.04
2022-12-15T19:35:07.787Z,84.24
2022-12-15T19:37:35.873Z,85.95
2022-12-15T19:40:02.848Z,83.06
2022-12-15T19:42:37.365Z,83.00
2022-12-15T19:45:15.314Z,81.97
2022-12-15T19:47:42.003Z,82.03
2022-12-15T19:50:13.085Z,82.27
2022-12-15T19:52:40.126Z,80.88
2022-12-15T19:55:08.711Z,81.88
2022-12-15T19:57:35.424Z,81.39
2022-12-15T20:00:02.413Z,82.03
2022-12-15T20:02:29.350Z,79.86
2022-12-15T20:04:56.353Z,85.69
2022-12-15T20:07:27.313Z,86.93
2022-12-15T20:09:54.170Z,84.53
2022-12-15T20:12:22.393Z,86.44
2022-12-15T20:14:49.102Z,85.81
2022-12-15T20:17:15.847Z,86.46
2022-12-15T20:19:42.744Z,87.11
2022-12-15T20:22:14.128Z,87.33
2022-12-15T20:24:41.130Z,88.70
2022-12-15T20:27:15.485Z,89.43
2022-12-15T20:29:43.806Z,89.13
2022-12-15T20:32:15.546Z,90.77
2022-12-15T20:34:42.817Z,89.87
2022-12-15T20:37:28.447Z,91.37
2022-12-15T20:39:57.605Z,87.62
2022-12-15T20:42:24.895Z,91.75
2022-12-15T20:44:51.923Z,89.67
2022-12-15T20:47:26.290Z,89.03
2022-12-15T20:49:54.488Z,87.84
2022-12-15T20:52:23.095Z,89.62
2022-12-15T20:54:50.245Z,88.12
2022-12-15T20:57:17.106Z,87.61
2022-12-15T20:59:44.887Z,87.56
2022-12-15T21:02:19.039Z,91.65
2022-12-15T21:04:46.328Z,93.07
2022-12-15T21:07:13.565Z,92.71
2022-12-15T21:09:40.734Z,92.86
2022-12-15T21:12:16.570Z,95.28
2022-12-15T21:14:43.390Z,95.15
2022-12-15T21:17:21.826Z,95.69
2022-12-15T21:19:49.025Z,91.71
2022-12-15T21:22:20.210Z,93.06
2022-12-15T21:24:47.561Z,92.37
2022-12-15T21:27:17.642Z,92.62
2022-12-15T21:29:50.417Z,94.32
2022-12-15T21:32:19.152Z,93.28
2022-12-15T21:34:45.873Z,94.15
2022-12-15T21:37:27.044Z,94.35
2022-12-15T21:39:54.255Z,93.76
2022-12-15T21:42:21.970Z,95.21
2022-12-15T21:44:48.725Z,95.87
2022-12-15T21:47:24.975Z,95.15
2022-12-15T21:49:51.849Z,95.84
2022-12-15T21:52:19.681Z,96.15
2022-12-15T21:54:46.426Z,93.11
2022-12-15T21:57:13.207Z,92.02
2022-12-15T21:59:40.075Z,91.11
2022-12-15T22:02:36.258Z,91.30
2022-12-15T22:05:03.339Z,90.77
2022-12-15T22:07:31.396Z,88.00
2022-12-15T22:09:58.563Z,89.21
2022-12-15T22:12:25.268Z,89.34
2022-12-15T22:14:52.229Z,89.17
2022-12-15T22:17:20.482Z,88.76
2022-12-15T22:19:47.826Z,91.36
2022-12-15T22:22:14.723Z,89.69
2022-12-15T22:24:41.696Z,89.74
2022-12-15T22:27:28.779Z,89.59
2022-12-15T22:29:56.843Z,90.34
2022-12-15T22:32:23.509Z,92.04
2022-12-15T22:34:50.306Z,93.89
2022-12-15T22:37:18.661Z,92.43
2022-12-15T22:39:45.647Z,91.57
2022-12-15T22:42:16.380Z,90.41
2022-12-15T22:44:43.257Z,89.46
2022-12-15T22:47:10.843Z,90.47
2022-12-15T22:49:39.051Z,92.97
2022-12-15T22:52:19.278Z,96.45
2022-12-15T22:54:46.425Z,96.37
2022-12-15T22:57:23.953Z,93.87
2022-12-15T22:59:53.323Z,94.35
2022-12-15T23:02:21.624Z,94.89
2022-12-15T23:04:48.426Z,94.41
2022-12-15T23:07:15.230Z,93.40
2022-12-15T23:09:41.986Z,91.83
2022-12-15T23:12:08.668Z,92.27
2022-12-15T23:14:53.938Z,93.18
2022-12-15T23:17:21.713Z,96.96
2022-12-15T23:19:48.414Z,96.03
2022-12-15T23:22:15.214Z,91.55
2022-12-15T23:24:42.109Z,93.89
2022-12-15T23:27:12.131Z,92.48
2022-12-15T23:29:38.800Z,91.20
2022-12-15T23:32:06.184Z,92.99
2022-12-15T23:34:32.926Z,93.45
2022-12-15T23:36:59.640Z,93.50
2022-12-15T23:39:26.352Z,94.77
2022-12-15T23:41:53.083Z,93.01
2022-12-15T23:44:20.184Z,93.27
2022-12-15T23:46:47.047Z,94.10
2022-12-15T23:49:13.908Z,93.04
2022-12-15T23:51:40.634Z,91.71
2022-12-15T23:54:07.276Z,91.99
2022-12-15T23:56:34.082Z,93.02
2022-12-15T23:59:00.752Z,95.67
